sensor_id;sensor_type;location;lat;lon;timestamp;pressure;altitude;pressure_sealevel;temperature;humidity
73860;BME280;62197;51.632;13.700;2023-03-16T00:01:08;100803.03;;;-3.22;100.00
73860;BME280;62197;51.632;13.700;2023-03-16T00:03:34;100806.56;;;-3.21;100.00
73860;BME280;62197;51.632;13.700;2023-03-16T00:06:00;100805.72;;;-3.22;100.00
73860;BME280;62197;51.632;13.700;2023-03-16T00:08:25;100796.38;;;-3.27;100.00
73860;BME280;62197;51.632;13.700;2023-03-16T00:10:51;100807.44;;;-3.30;100.00
73860;BME280;62197;51.632;13.700;2023-03-16T00:13:19;100819.66;;;-3.26;100.00
73860;BME280;62197;51.632;13.700;2023-03-16T00:15:54;100817.97;;;-3.27;100.00
73860;BME280;62197;51.632;13.700;2023-03-16T00:18:21;100822.50;;;-3.28;100.00
73860;BME280;62197;51.632;13.700;2023-03-16T00:20:51;100815.97;;;-3.25;100.00
73860;BME280;62197;51.632;13.700;2023-03-16T00:23:17;100819.38;;;-3.23;100.00
73860;BME280;62197;51.632;13.700;2023-03-16T00:25:42;100813.38;;;-3.17;100.00
73860;BME280;62197;51.632;13.700;2023-03-16T00:28:08;100819.59;;;-3.07;100.00
73860;BME280;62197;51.632;13.700;2023-03-16T00:30:33;100813.22;;;-3.06;100.00
73860;BME280;62197;51.632;13.700;2023-03-16T00:32:58;100819.56;;;-2.98;100.00
73860;BME280;62197;51.632;13.700;2023-03-16T00:35:24;100805.22;;;-2.89;100.00
73860;BME280;62197;51.632;13.700;2023-03-16T00:37:49;100810.72;;;-2.90;100.00
73860;BME280;62197;51.632;13.700;2023-03-16T00:40:15;100813.34;;;-2.98;100.00
73860;BME280;62197;51.632;13.700;2023-03-16T00:42:40;100816.44;;;-2.93;100.00
73860;BME280;62197;51.632;13.700;2023-03-16T00:45:06;100820.31;;;-3.05;100.00
73860;BME280;62197;51.632;13.700;2023-03-16T00:47:33;100835.78;;;-3.07;100.00
73860;BME280;62197;51.632;13.700;2023-03-16T00:49:59;100834.13;;;-3.18;100.00
73860;BME280;62197;51.632;13.700;2023-03-16T00:52:25;100830.44;;;-3.26;100.00
73860;BME280;62197;51.632;13.700;2023-03-16T00:54:52;100823.91;;;-3.24;100.00
73860;BME280;62197;51.632;13.700;2023-03-16T00:57:18;100827.59;;;-3.34;100.00
73860;BME280;62197;51.632;13.700;2023-03-16T00:59:45;100828.19;;;-3.40;100.00
73860;BME280;62197;51.632;13.700;2023-03-16T01:02:10;100839.13;;;-3.42;100.00
73860;BME280;62197;51.632;13.700;2023-03-16T01:04:37;100840.69;;;-3.39;100.00
73860;BME280;62197;51.632;13.700;2023-03-16T01:07:04;100839.69;;;-3.38;100.00
73860;BME280;62197;51.632;13.700;2023-03-16T01:09:30;100843.53;;;-3.31;100.00
73860;BME280;62197;51.632;13.700;2023-03-16T01:12:01;100830.47;;;-3.36;100.00
73860;BME280;62197;51.632;13.700;2023-03-16T01:14:27;100835.28;;;-3.39;100.00
73860;BME280;62197;51.632;13.700;2023-03-16T01:16:52;100841.41;;;-3.37;100.00
73860;BME280;62197;51.632;13.700;2023-03-16T01:19:18;100816.81;;;-3.44;100.00
73860;BME280;62197;51.632;13.700;2023-03-16T01:21:43;100830.75;;;-3.39;100.00
73860;BME280;62197;51.632;13.700;2023-03-16T01:24:08;100839.41;;;-3.35;100.00
73860;BME280;62197;51.632;13.700;2023-03-16T01:26:34;100841.97;;;-3.43;100.00
73860;BME280;62197;51.632;13.700;2023-03-16T01:29:00;100824.22;;;-3.55;100.00
73860;BME280;62197;51.632;13.700;2023-03-16T01:31:26;100838.28;;;-3.61;100.00
73860;BME280;62197;51.632;13.700;2023-03-16T01:33:53;100830.03;;;-3.70;100.00
73860;BME280;62197;51.632;13.700;2023-03-16T01:36:18;100843.09;;;-3.65;100.00
73860;BME280;62197;51.632;13.700;2023-03-16T01:38:44;100837.41;;;-3.72;100.00
73860;BME280;62197;51.632;13.700;2023-03-16T01:41:10;100842.41;;;-3.67;100.00
73860;BME280;62197;51.632;13.700;2023-03-16T01:43:37;100838.28;;;-3.71;100.00
73860;BME280;62197;51.632;13.700;2023-03-16T01:48:37;100840.72;;;-3.78;100.00
73860;BME280;62197;51.632;13.700;2023-03-16T01:54:13;100841.53;;;-3.77;100.00
73860;BME280;62197;51.632;13.700;2023-03-16T01:59:22;100832.88;;;-3.81;100.00
73860;BME280;62197;51.632;13.700;2023-03-16T02:01:49;100839.44;;;-3.74;100.00
73860;BME280;62197;51.632;13.700;2023-03-16T02:07:11;100824.78;;;-3.81;100.00
73860;BME280;62197;51.632;13.700;2023-03-16T02:09:43;100833.88;;;-3.82;100.00
73860;BME280;62197;51.632;13.700;2023-03-16T02:12:11;100833.34;;;-3.76;100.00
73860;BME280;62197;51.632;13.700;2023-03-16T02:14:45;100829.31;;;-3.72;100.00
73860;BME280;62197;51.632;13.700;2023-03-16T02:17:12;100829.31;;;-3.72;100.00
73860;BME280;62197;51.632;13.700;2023-03-16T02:22:13;100831.19;;;-3.62;100.00
73860;BME280;62197;51.632;13.700;2023-03-16T02:24:38;100831.91;;;-3.60;100.00
73860;BME280;62197;51.632;13.700;2023-03-16T02:27:07;100844.38;;;-3.59;100.00
73860;BME280;62197;51.632;13.700;2023-03-16T02:30:01;100841.28;;;-3.64;100.00
73860;BME280;62197;51.632;13.700;2023-03-16T02:32:29;100842.97;;;-3.63;100.00
73860;BME280;62197;51.632;13.700;2023-03-16T02:34:57;100843.81;;;-3.63;100.00
73860;BME280;62197;51.632;13.700;2023-03-16T02:37:23;100840.97;;;-3.61;100.00
73860;BME280;62197;51.632;13.700;2023-03-16T02:39:48;100841.69;;;-3.59;100.00
73860;BME280;62197;51.632;13.700;2023-03-16T02:42:16;100843.41;;;-3.68;100.00
73860;BME280;62197;51.632;13.700;2023-03-16T02:44:45;100838.44;;;-3.82;100.00
73860;BME280;62197;51.632;13.700;2023-03-16T02:47:18;100839.53;;;-3.85;100.00
73860;BME280;62197;51.632;13.700;2023-03-16T02:49:45;100852.06;;;-3.84;100.00
73860;BME280;62197;51.632;13.700;2023-03-16T02:52:10;100842.97;;;-3.83;100.00
73860;BME280;62197;51.632;13.700;2023-03-16T02:54:36;100844.94;;;-3.85;100.00
73860;BME280;62197;51.632;13.700;2023-03-16T02:57:02;100848.06;;;-3.89;100.00
73860;BME280;62197;51.632;13.700;2023-03-16T02:59:27;100851.75;;;-3.81;100.00
73860;BME280;62197;51.632;13.700;2023-03-16T03:01:53;100853.91;;;-3.75;100.00
73860;BME280;62197;51.632;13.700;2023-03-16T03:04:18;100850.06;;;-3.72;100.00
73860;BME280;62197;51.632;13.700;2023-03-16T03:06:44;100842.97;;;-3.73;100.00
73860;BME280;62197;51.632;13.700;2023-03-16T03:09:10;100854.91;;;-3.76;100.00
73860;BME280;62197;51.632;13.700;2023-03-16T03:11:38;100854.44;;;-3.81;100.00
73860;BME280;62197;51.632;13.700;2023-03-16T03:14:04;100860.41;;;-3.77;100.00
73860;BME280;62197;51.632;13.700;2023-03-16T03:16:30;100849.50;;;-3.76;100.00
73860;BME280;62197;51.632;13.700;2023-03-16T03:18:56;100861.69;;;-3.72;100.00
73860;BME280;62197;51.632;13.700;2023-03-16T03:21:22;100850.34;;;-3.85;100.00
73860;BME280;62197;51.632;13.700;2023-03-16T03:23:48;100860.84;;;-3.82;100.00
73860;BME280;62197;51.632;13.700;2023-03-16T03:26:14;100863.97;;;-3.86;100.00
73860;BME280;62197;51.632;13.700;2023-03-16T03:28:39;100863.97;;;-3.77;100.00
73860;BME280;62197;51.632;13.700;2023-03-16T03:31:06;100865.69;;;-3.76;100.00
73860;BME280;62197;51.632;13.700;2023-03-16T03:33:31;100866.25;;;-3.82;100.00
73860;BME280;62197;51.632;13.700;2023-03-16T03:35:58;100871.50;;;-3.80;100.00
73860;BME280;62197;51.632;13.700;2023-03-16T03:38:24;100873.63;;;-3.64;100.00
73860;BME280;62197;51.632;13.700;2023-03-16T03:40:51;100871.34;;;-3.59;100.00
73860;BME280;62197;51.632;13.700;2023-03-16T03:43:17;100870.78;;;-3.63;100.00
73860;BME280;62197;51.632;13.700;2023-03-16T03:45:42;100881.00;;;-3.76;100.00
73860;BME280;62197;51.632;13.700;2023-03-16T03:48:08;100873.47;;;-3.82;100.00
73860;BME280;62197;51.632;13.700;2023-03-16T03:50:33;100871.88;;;-3.94;100.00
73860;BME280;62197;51.632;13.700;2023-03-16T03:52:59;100880.84;;;-3.94;100.00
73860;BME280;62197;51.632;13.700;2023-03-16T03:55:24;100889.91;;;-3.95;100.00
73860;BME280;62197;51.632;13.700;2023-03-16T03:57:49;100883.84;;;-3.87;100.00
73860;BME280;62197;51.632;13.700;2023-03-16T04:00:15;100877.84;;;-3.91;100.00
73860;BME280;62197;51.632;13.700;2023-03-16T04:02:45;100884.97;;;-3.90;100.00
73860;BME280;62197;51.632;13.700;2023-03-16T04:05:10;100874.31;;;-3.91;100.00
73860;BME280;62197;51.632;13.700;2023-03-16T04:07:35;100878.84;;;-3.92;100.00
73860;BME280;62197;51.632;13.700;2023-03-16T04:10:01;100881.81;;;-3.95;100.00
73860;BME280;62197;51.632;13.700;2023-03-16T04:12:26;100861.78;;;-4.11;100.00
73860;BME280;62197;51.632;13.700;2023-03-16T04:14:51;100880.97;;;-4.05;100.00
73860;BME280;62197;51.632;13.700;2023-03-16T04:17:17;100876.69;;;-4.07;100.00
73860;BME280;62197;51.632;13.700;2023-03-16T04:19:42;100879.38;;;-4.07;100.00
73860;BME280;62197;51.632;13.700;2023-03-16T04:22:07;100877.66;;;-4.08;100.00
73860;BME280;62197;51.632;13.700;2023-03-16T04:24:33;100873.59;;;-4.03;100.00
73860;BME280;62197;51.632;13.700;2023-03-16T04:26:59;100868.19;;;-4.12;100.00
73860;BME280;62197;51.632;13.700;2023-03-16T04:29:25;100872.72;;;-4.13;100.00
73860;BME280;62197;51.632;13.700;2023-03-16T04:31:50;100870.16;;;-4.14;100.00
73860;BME280;62197;51.632;13.700;2023-03-16T04:34:18;100869.72;;;-4.10;100.00
73860;BME280;62197;51.632;13.700;2023-03-16T04:36:43;100864.78;;;-4.14;100.00
73860;BME280;62197;51.632;13.700;2023-03-16T04:39:09;100880.38;;;-4.08;100.00
73860;BME280;62197;51.632;13.700;2023-03-16T04:41:34;100864.19;;;-4.08;100.00
73860;BME280;62197;51.632;13.700;2023-03-16T04:44:00;100877.25;;;-4.04;100.00
73860;BME280;62197;51.632;13.700;2023-03-16T04:46:25;100884.38;;;-4.03;100.00
73860;BME280;62197;51.632;13.700;2023-03-16T04:48:51;100875.56;;;-4.05;100.00
73860;BME280;62197;51.632;13.700;2023-03-16T04:51:16;100881.53;;;-4.01;100.00
73860;BME280;62197;51.632;13.700;2023-03-16T04:53:42;100874.50;;;-3.74;100.00
73860;BME280;62197;51.632;13.700;2023-03-16T04:56:08;100887.38;;;-3.68;100.00
73860;BME280;62197;51.632;13.700;2023-03-16T04:58:33;100883.56;;;-3.75;100.00
73860;BME280;62197;51.632;13.700;2023-03-16T05:00:59;100882.53;;;-3.83;100.00
73860;BME280;62197;51.632;13.700;2023-03-16T05:03:24;100882.69;;;-3.85;100.00
73860;BME280;62197;51.632;13.700;2023-03-16T05:05:50;100886.09;;;-3.83;100.00
73860;BME280;62197;51.632;13.700;2023-03-16T05:08:15;100886.66;;;-3.79;100.00
73860;BME280;62197;51.632;13.700;2023-03-16T05:10:41;100883.56;;;-3.75;100.00
73860;BME280;62197;51.632;13.700;2023-03-16T05:13:06;100880.44;;;-3.80;100.00
73860;BME280;62197;51.632;13.700;2023-03-16T05:15:32;100884.13;;;-3.71;100.00
73860;BME280;62197;51.632;13.700;2023-03-16T05:17:58;100879.59;;;-3.71;100.00
73860;BME280;62197;51.632;13.700;2023-03-16T05:20:24;100883.31;;;-3.62;100.00
73860;BME280;62197;51.632;13.700;2023-03-16T05:22:50;100891.41;;;-3.52;100.00
73860;BME280;62197;51.632;13.700;2023-03-16T05:25:16;100899.19;;;-3.59;100.00
73860;BME280;62197;51.632;13.700;2023-03-16T05:27:46;100904.00;;;-3.62;100.00
73860;BME280;62197;51.632;13.700;2023-03-16T05:30:13;100906.97;;;-3.56;100.00
73860;BME280;62197;51.632;13.700;2023-03-16T05:32:40;100899.50;;;-3.52;100.00
73860;BME280;62197;51.632;13.700;2023-03-16T05:35:06;100908.72;;;-3.45;100.00
73860;BME280;62197;51.632;13.700;2023-03-16T05:37:32;100912.25;;;-3.54;100.00
73860;BME280;62197;51.632;13.700;2023-03-16T05:39:57;100909.00;;;-3.48;100.00
73860;BME280;62197;51.632;13.700;2023-03-16T05:42:23;100910.13;;;-3.51;100.00
73860;BME280;62197;51.632;13.700;2023-03-16T05:44:51;100902.91;;;-3.50;100.00
73860;BME280;62197;51.632;13.700;2023-03-16T05:47:16;100912.13;;;-3.43;100.00
73860;BME280;62197;51.632;13.700;2023-03-16T05:49:42;100909.97;;;-3.49;100.00
73860;BME280;62197;51.632;13.700;2023-03-16T05:52:07;100910.69;;;-3.57;100.00
73860;BME280;62197;51.632;13.700;2023-03-16T05:54:32;100913.66;;;-3.60;100.00
73860;BME280;62197;51.632;13.700;2023-03-16T05:56:58;100915.94;;;-3.55;100.00
73860;BME280;62197;51.632;13.700;2023-03-16T05:59:23;100921.78;;;-3.50;100.00
73860;BME280;62197;51.632;13.700;2023-03-16T06:01:49;100920.91;;;-3.41;100.00
73860;BME280;62197;51.632;13.700;2023-03-16T06:04:14;100918.38;;;-3.33;100.00
73860;BME280;62197;51.632;13.700;2023-03-16T06:06:40;100918.50;;;-3.16;100.00
73860;BME280;62197;51.632;13.700;2023-03-16T06:09:05;100926.75;;;-2.98;100.00
73860;BME280;62197;51.632;13.700;2023-03-16T06:11:30;100924.16;;;-2.90;100.00
73860;BME280;62197;51.632;13.700;2023-03-16T06:13:57;100924.72;;;-2.77;100.00
73860;BME280;62197;51.632;13.700;2023-03-16T06:16:23;100926.09;;;-2.63;100.00
73860;BME280;62197;51.632;13.700;2023-03-16T06:18:48;100930.47;;;-2.53;100.00
73860;BME280;62197;51.632;13.700;2023-03-16T06:21:13;100922.47;;;-2.45;100.00
73860;BME280;62197;51.632;13.700;2023-03-16T06:23:38;100925.69;;;-2.32;100.00
73860;BME280;62197;51.632;13.700;2023-03-16T06:26:04;100928.06;;;-2.19;100.00
73860;BME280;62197;51.632;13.700;2023-03-16T06:28:29;100931.44;;;-2.08;100.00
73860;BME280;62197;51.632;13.700;2023-03-16T06:30:56;100936.34;;;-1.94;100.00
73860;BME280;62197;51.632;13.700;2023-03-16T06:33:21;100928.91;;;-1.92;100.00
73860;BME280;62197;51.632;13.700;2023-03-16T06:35:48;100937.13;;;-1.84;100.00
73860;BME280;62197;51.632;13.700;2023-03-16T06:38:14;100934.78;;;-1.69;100.00
73860;BME280;62197;51.632;13.700;2023-03-16T06:40:39;100930.28;;;-1.60;100.00
73860;BME280;62197;51.632;13.700;2023-03-16T06:43:05;100928.78;;;-1.45;100.00
73860;BME280;62197;51.632;13.700;2023-03-16T06:45:31;100932.25;;;-1.35;100.00
73860;BME280;62197;51.632;13.700;2023-03-16T06:47:56;100926.22;;;-1.29;100.00
73860;BME280;62197;51.632;13.700;2023-03-16T06:50:21;100932.66;;;-1.13;100.00
73860;BME280;62197;51.632;13.700;2023-03-16T06:52:47;100929.69;;;-1.02;100.00
73860;BME280;62197;51.632;13.700;2023-03-16T06:55:12;100920.34;;;-0.89;100.00
73860;BME280;62197;51.632;13.700;2023-03-16T06:57:39;100929.75;;;-0.76;100.00
73860;BME280;62197;51.632;13.700;2023-03-16T07:00:04;100935.06;;;-0.66;100.00
73860;BME280;62197;51.632;13.700;2023-03-16T07:02:31;100944.94;;;-0.57;100.00
73860;BME280;62197;51.632;13.700;2023-03-16T07:04:59;100939.75;;;-0.51;100.00
73860;BME280;62197;51.632;13.700;2023-03-16T07:07:25;100946.66;;;-0.31;100.00
73860;BME280;62197;51.632;13.700;2023-03-16T07:09:51;100952.41;;;-0.08;100.00
73860;BME280;62197;51.632;13.700;2023-03-16T07:12:16;100960.13;;;0.13;100.00
73860;BME280;62197;51.632;13.700;2023-03-16T07:14:42;100963.19;;;0.18;100.00
73860;BME280;62197;51.632;13.700;2023-03-16T07:17:07;100963.22;;;0.26;100.00
73860;BME280;62197;51.632;13.700;2023-03-16T07:19:33;100957.19;;;0.40;100.00
73860;BME280;62197;51.632;13.700;2023-03-16T07:21:58;100956.84;;;0.43;100.00
73860;BME280;62197;51.632;13.700;2023-03-16T07:24:23;100958.41;;;0.53;100.00
73860;BME280;62197;51.632;13.700;2023-03-16T07:26:49;100933.91;;;0.37;100.00
73860;BME280;62197;51.632;13.700;2023-03-16T07:29:14;100968.75;;;0.50;100.00
73860;BME280;62197;51.632;13.700;2023-03-16T07:31:41;100974.78;;;0.93;100.00
73860;BME280;62197;51.632;13.700;2023-03-16T07:34:07;100975.66;;;1.02;100.00
73860;BME280;62197;51.632;13.700;2023-03-16T07:36:32;100977.00;;;0.98;100.00
73860;BME280;62197;51.632;13.700;2023-03-16T07:38:58;100981.06;;;1.74;100.00
73860;BME280;62197;51.632;13.700;2023-03-16T07:41:23;100981.44;;;1.63;100.00
73860;BME280;62197;51.632;13.700;2023-03-16T07:43:49;100979.00;;;2.01;100.00
73860;BME280;62197;51.632;13.700;2023-03-16T07:46:15;100979.72;;;1.70;100.00
73860;BME280;62197;51.632;13.700;2023-03-16T07:48:41;100979.06;;;1.60;100.00
73860;BME280;62197;51.632;13.700;2023-03-16T07:51:08;100983.31;;;2.34;100.00
73860;BME280;62197;51.632;13.700;2023-03-16T07:53:33;100983.88;;;3.58;100.00
73860;BME280;62197;51.632;13.700;2023-03-16T07:55:59;100979.44;;;3.95;100.00
73860;BME280;62197;51.632;13.700;2023-03-16T07:58:25;100982.34;;;4.66;97.38
73860;BME280;62197;51.632;13.700;2023-03-16T08:00:50;100978.78;;;3.93;99.82
73860;BME280;62197;51.632;13.700;2023-03-16T08:03:16;100986.94;;;3.18;98.12
73860;BME280;62197;51.632;13.700;2023-03-16T08:05:41;100985.47;;;2.46;100.00
73860;BME280;62197;51.632;13.700;2023-03-16T08:08:06;100981.69;;;2.17;100.00
73860;BME280;62197;51.632;13.700;2023-03-16T08:10:34;100970.47;;;1.96;100.00
73860;BME280;62197;51.632;13.700;2023-03-16T08:12:59;100998.19;;;2.07;100.00
73860;BME280;62197;51.632;13.700;2023-03-16T08:15:24;100990.53;;;2.11;100.00
73860;BME280;62197;51.632;13.700;2023-03-16T08:17:50;100994.28;;;2.10;100.00
73860;BME280;62197;51.632;13.700;2023-03-16T08:20:16;100996.13;;;2.17;100.00
73860;BME280;62197;51.632;13.700;2023-03-16T08:22:43;100990.13;;;2.38;100.00
73860;BME280;62197;51.632;13.700;2023-03-16T08:25:15;100998.53;;;2.59;100.00
73860;BME280;62197;51.632;13.700;2023-03-16T08:27:43;100984.91;;;2.59;100.00
73860;BME280;62197;51.632;13.700;2023-03-16T08:30:10;101000.19;;;2.68;100.00
73860;BME280;62197;51.632;13.700;2023-03-16T08:32:36;100995.81;;;2.59;100.00
73860;BME280;62197;51.632;13.700;2023-03-16T08:35:04;101000.78;;;2.55;100.00
73860;BME280;62197;51.632;13.700;2023-03-16T08:37:30;100993.91;;;2.59;100.00
73860;BME280;62197;51.632;13.700;2023-03-16T08:39:55;101006.75;;;2.82;99.68
73860;BME280;62197;51.632;13.700;2023-03-16T08:42:21;100997.09;;;3.02;99.21
73860;BME280;62197;51.632;13.700;2023-03-16T08:44:47;101024.00;;;3.05;93.92
73860;BME280;62197;51.632;13.700;2023-03-16T08:47:13;101009.56;;;2.96;96.01
73860;BME280;62197;51.632;13.700;2023-03-16T08:49:39;101026.19;;;3.09;95.19
73860;BME280;62197;51.632;13.700;2023-03-16T08:52:05;101018.63;;;3.19;93.03
73860;BME280;62197;51.632;13.700;2023-03-16T08:54:34;101020.50;;;3.41;94.54
73860;BME280;62197;51.632;13.700;2023-03-16T08:56:59;101026.09;;;3.48;93.33
73860;BME280;62197;51.632;13.700;2023-03-16T08:59:25;101019.16;;;3.37;91.57
73860;BME280;62197;51.632;13.700;2023-03-16T09:01:50;101013.06;;;3.58;91.63
73860;BME280;62197;51.632;13.700;2023-03-16T09:04:16;101018.47;;;3.81;90.16
73860;BME280;62197;51.632;13.700;2023-03-16T09:06:41;101022.81;;;3.90;88.69
73860;BME280;62197;51.632;13.700;2023-03-16T09:09:06;101006.19;;;3.62;89.37
73860;BME280;62197;51.632;13.700;2023-03-16T09:11:33;101017.34;;;3.52;86.95
73860;BME280;62197;51.632;13.700;2023-03-16T09:13:59;101026.88;;;3.94;88.92
73860;BME280;62197;51.632;13.700;2023-03-16T09:16:25;101021.47;;;4.08;88.30
73860;BME280;62197;51.632;13.700;2023-03-16T09:18:51;101022.22;;;4.17;84.66
73860;BME280;62197;51.632;13.700;2023-03-16T09:21:16;101020.91;;;4.42;85.76
73860;BME280;62197;51.632;13.700;2023-03-16T09:23:42;101022.97;;;4.69;82.39
73860;BME280;62197;51.632;13.700;2023-03-16T09:26:08;101025.03;;;4.67;81.19
73860;BME280;62197;51.632;13.700;2023-03-16T09:28:34;101023.44;;;4.73;82.39
73860;BME280;62197;51.632;13.700;2023-03-16T09:31:00;101024.44;;;5.01;81.82
73860;BME280;62197;51.632;13.700;2023-03-16T09:33:27;101023.69;;;4.92;76.62
73860;BME280;62197;51.632;13.700;2023-03-16T09:35:54;101035.06;;;5.10;76.09
73860;BME280;62197;51.632;13.700;2023-03-16T09:38:21;101026.75;;;5.04;76.57
73860;BME280;62197;51.632;13.700;2023-03-16T09:40:56;101027.78;;;5.17;75.49
73860;BME280;62197;51.632;13.700;2023-03-16T09:46:06;101032.94;;;5.27;73.92
73860;BME280;62197;51.632;13.700;2023-03-16T09:48:34;101043.44;;;5.44;72.84
73860;BME280;62197;51.632;13.700;2023-03-16T09:51:04;101021.94;;;5.63;69.52
73860;BME280;62197;51.632;13.700;2023-03-16T09:53:33;101029.09;;;5.64;67.08
73860;BME280;62197;51.632;13.700;2023-03-16T09:56:10;101035.97;;;5.74;67.25
73860;BME280;62197;51.632;13.700;2023-03-16T09:58:38;101028.59;;;5.75;65.90
73860;BME280;62197;51.632;13.700;2023-03-16T10:01:18;101037.34;;;5.85;64.88
73860;BME280;62197;51.632;13.700;2023-03-16T10:06:23;101014.59;;;5.84;62.84
73860;BME280;62197;51.632;13.700;2023-03-16T10:09:01;101029.09;;;6.06;63.69
73860;BME280;62197;51.632;13.700;2023-03-16T10:11:30;101027.59;;;6.03;63.76
73860;BME280;62197;51.632;13.700;2023-03-16T10:14:18;101013.59;;;5.92;63.38
73860;BME280;62197;51.632;13.700;2023-03-16T10:16:49;101004.25;;;6.07;60.56
73860;BME280;62197;51.632;13.700;2023-03-16T10:19:17;101020.00;;;6.33;59.84
73860;BME280;62197;51.632;13.700;2023-03-16T10:21:45;101011.59;;;6.34;60.47
73860;BME280;62197;51.632;13.700;2023-03-16T10:27:18;101006.88;;;6.22;57.92
73860;BME280;62197;51.632;13.700;2023-03-16T10:29:46;101003.81;;;6.38;56.53
73860;BME280;62197;51.632;13.700;2023-03-16T10:32:14;101008.25;;;6.39;58.73
73860;BME280;62197;51.632;13.700;2023-03-16T10:34:42;100998.88;;;6.61;60.06
73860;BME280;62197;51.632;13.700;2023-03-16T10:37:12;101001.75;;;6.87;60.93
73860;BME280;62197;51.632;13.700;2023-03-16T10:39:38;100995.69;;;7.05;58.23
73860;BME280;62197;51.632;13.700;2023-03-16T10:42:12;100998.94;;;7.28;57.45
73860;BME280;62197;51.632;13.700;2023-03-16T10:44:39;100985.25;;;7.48;53.04
73860;BME280;62197;51.632;13.700;2023-03-16T10:47:05;100999.22;;;7.66;51.40
73860;BME280;62197;51.632;13.700;2023-03-16T10:49:41;101006.63;;;7.91;52.21
73860;BME280;62197;51.632;13.700;2023-03-16T10:52:18;100988.88;;;8.07;48.61
73860;BME280;62197;51.632;13.700;2023-03-16T10:55:09;101004.06;;;8.55;49.38
73860;BME280;62197;51.632;13.700;2023-03-16T10:57:36;100997.97;;;9.42;48.39
73860;BME280;62197;51.632;13.700;2023-03-16T11:00:12;101003.41;;;9.79;42.51
73860;BME280;62197;51.632;13.700;2023-03-16T11:02:39;100998.94;;;9.85;41.67
73860;BME280;62197;51.632;13.700;2023-03-16T11:05:13;100991.44;;;9.67;43.41
73860;BME280;62197;51.632;13.700;2023-03-16T11:07:46;100984.19;;;9.97;44.94
73860;BME280;62197;51.632;13.700;2023-03-16T11:10:32;100993.94;;;10.85;41.63
73860;BME280;62197;51.632;13.700;2023-03-16T11:13:04;100993.31;;;10.23;42.71
73860;BME280;62197;51.632;13.700;2023-03-16T11:18:38;100987.16;;;11.47;40.15
73860;BME280;62197;51.632;13.700;2023-03-16T11:21:14;100979.91;;;11.46;39.45
73860;BME280;62197;51.632;13.700;2023-03-16T11:23:46;100985.47;;;11.76;40.49
73860;BME280;62197;51.632;13.700;2023-03-16T11:26:19;100984.47;;;12.58;39.37
73860;BME280;62197;51.632;13.700;2023-03-16T11:28:52;100963.59;;;11.86;36.21
73860;BME280;62197;51.632;13.700;2023-03-16T11:31:36;100974.69;;;12.09;34.56
73860;BME280;62197;51.632;13.700;2023-03-16T11:34:15;100972.53;;;12.11;36.61
73860;BME280;62197;51.632;13.700;2023-03-16T11:36:54;100961.13;;;12.94;34.58
73860;BME280;62197;51.632;13.700;2023-03-16T11:42:53;100955.75;;;11.71;37.35
73860;BME280;62197;51.632;13.700;2023-03-16T11:45:14;100960.50;;;12.63;34.86
73860;BME280;62197;51.632;13.700;2023-03-16T11:48:14;100950.28;;;13.60;34.81
73860;BME280;62197;51.632;13.700;2023-03-16T11:51:00;100942.41;;;14.18;32.95
73860;BME280;62197;51.632;13.700;2023-03-16T11:53:49;100934.72;;;14.42;33.23
73860;BME280;62197;51.632;13.700;2023-03-16T11:59:14;100936.44;;;14.26;32.94
73860;BME280;62197;51.632;13.700;2023-03-16T12:02:19;100921.59;;;14.76;32.40
73860;BME280;62197;51.632;13.700;2023-03-16T12:04:57;100912.47;;;13.54;32.50
73860;BME280;62197;51.632;13.700;2023-03-16T12:08:09;100912.84;;;13.74;34.17
73860;BME280;62197;51.632;13.700;2023-03-16T12:11:01;100923.69;;;15.87;30.09
73860;BME280;62197;51.632;13.700;2023-03-16T12:16:20;100908.28;;;15.21;31.94
73860;BME280;62197;51.632;13.700;2023-03-16T12:18:52;100912.56;;;15.87;29.46
73860;BME280;62197;51.632;13.700;2023-03-16T12:21:24;100914.53;;;15.91;28.15
73860;BME280;62197;51.632;13.700;2023-03-16T12:23:53;100901.81;;;16.00;29.20
73860;BME280;62197;51.632;13.700;2023-03-16T12:26:21;100904.78;;;15.57;29.12
73860;BME280;62197;51.632;13.700;2023-03-16T12:28:48;100897.28;;;15.58;27.13
73860;BME280;62197;51.632;13.700;2023-03-16T12:31:18;100903.34;;;15.81;27.76
73860;BME280;62197;51.632;13.700;2023-03-16T12:33:55;100892.91;;;16.03;25.03
73860;BME280;62197;51.632;13.700;2023-03-16T12:42:34;100890.97;;;16.04;24.43
73860;BME280;62197;51.632;13.700;2023-03-16T12:45:13;100894.72;;;15.03;24.71
73860;BME280;62197;51.632;13.700;2023-03-16T12:50:51;100877.78;;;15.89;27.11
73860;BME280;62197;51.632;13.700;2023-03-16T12:53:46;100863.91;;;15.94;27.18
73860;BME280;62197;51.632;13.700;2023-03-16T12:56:30;100879.63;;;17.24;25.85
73860;BME280;62197;51.632;13.700;2023-03-16T12:58:59;100870.56;;;16.82;24.24
73860;BME280;62197;51.632;13.700;2023-03-16T13:01:28;100868.94;;;16.96;22.93
73860;BME280;62197;51.632;13.700;2023-03-16T13:03:59;100862.28;;;17.07;23.45
73860;BME280;62197;51.632;13.700;2023-03-16T13:06:31;100858.66;;;17.11;23.95
73860;BME280;62197;51.632;13.700;2023-03-16T13:08:58;100860.69;;;17.41;22.59
73860;BME280;62197;51.632;13.700;2023-03-16T13:11:25;100857.69;;;16.71;22.24
73860;BME280;62197;51.632;13.700;2023-03-16T13:14:04;100851.44;;;16.02;24.43
73860;BME280;62197;51.632;13.700;2023-03-16T13:16:35;100851.22;;;16.55;24.99
73860;BME280;62197;51.632;13.700;2023-03-16T13:19:16;100846.09;;;17.04;24.08
73860;BME280;62197;51.632;13.700;2023-03-16T13:21:59;100852.25;;;17.21;24.65
73860;BME280;62197;51.632;13.700;2023-03-16T13:24:27;100842.25;;;17.20;25.99